Time;durP1;ratioP1;P1;durP2;ratioP2;P2;SDS_P1;SDS_P2;PMS_P1;PMS_P2;Temp;Humidity;BMP_temperature;BMP_pressure;BME280_temperature;BME280_humidity;BME280_pressure;Samples;Min_cycle;Max_cycle;Signal;HPM_P1;HPM_P2
2022/07/13 00:02:05;;;;;;;;;9.00;9.00;;;;;;;;5080193;27;45375;-70
2022/07/13 00:04:30;;;;;;;;;14.67;10.67;;;;;;;;5078331;27;46512;-70
2022/07/13 00:06:55;;;;;;;;;11.00;9.33;;;;;;;;5077632;27;45377;-70
2022/07/13 00:09:20;;;;;;;;;11.00;10.00;;;;;;;;5077392;27;45340;-70
2022/07/13 00:11:45;;;;;;;;;12.00;10.67;;;;;;;;5077526;28;45285;-71
2022/07/13 00:14:11;;;;;;;;;12.33;11.67;;;;;;;;5077097;28;45496;-70
2022/07/13 00:16:36;;;;;;;;;11.67;10.33;;;;;;;;5077355;28;45274;-72
2022/07/13 00:19:01;;;;;;;;;12.00;10.00;;;;;;;;5077693;28;45721;-71
2022/07/13 00:21:26;;;;;;;;;10.67;10.67;;;;;;;;5077313;28;45390;-71
2022/07/13 00:23:51;;;;;;;;;10.33;10.00;;;;;;;;5080791;27;45485;-71
2022/07/13 00:26:17;;;;;;;;;11.67;10.33;;;;;;;;5080889;27;45458;-71
2022/07/13 00:28:42;;;;;;;;;10.67;10.67;;;;;;;;5077298;28;45347;-71
2022/07/13 00:31:07;;;;;;;;;4.00;3.67;;;;;;;;5077390;28;45450;-71
2022/07/13 00:33:32;;;;;;;;;11.67;11.67;;;;;;;;5076683;28;45482;-70
2022/07/13 00:35:58;;;;;;;;;11.33;10.00;;;;;;;;5081096;27;45491;-70
2022/07/13 00:38:23;;;;;;;;;11.33;10.00;;;;;;;;5085489;27;45463;-70
2022/07/13 00:40:49;;;;;;;;;11.67;10.00;;;;;;;;5101353;27;45309;-70
2022/07/13 00:43:14;;;;;;;;;12.33;10.00;;;;;;;;5097172;27;46536;-70
2022/07/13 00:45:39;;;;;;;;;11.33;10.00;;;;;;;;5091394;27;45375;-69
2022/07/13 00:48:05;;;;;;;;;9.33;9.33;;;;;;;;5080477;28;45300;-70
2022/07/13 00:50:31;;;;;;;;;4.67;4.67;;;;;;;;5080636;27;45319;-70
2022/07/13 00:52:57;;;;;;;;;10.67;9.67;;;;;;;;5080618;27;46222;-71
2022/07/13 00:55:22;;;;;;;;;10.33;9.33;;;;;;;;5083105;27;45426;-71
2022/07/13 00:57:47;;;;;;;;;11.00;11.00;;;;;;;;5096028;27;45420;-71
2022/07/13 01:00:13;;;;;;;;;14.33;12.00;;;;;;;;5094929;27;45411;-71
2022/07/13 01:02:39;;;;;;;;;11.00;10.67;;;;;;;;5091137;27;46939;-71
2022/07/13 01:05:05;;;;;;;;;8.00;8.00;;;;;;;;5087888;27;45799;-71
2022/07/13 01:07:32;;;;;;;;;11.00;11.00;;;;;;;;5079247;27;45241;-70
2022/07/13 01:09:57;;;;;;;;;10.00;10.00;;;;;;;;5077240;27;45590;-70
2022/07/13 01:12:23;;;;;;;;;9.00;9.00;;;;;;;;5081724;27;45450;-70
2022/07/13 01:14:49;;;;;;;;;14.33;11.33;;;;;;;;5079117;28;45519;-71
2022/07/13 01:17:14;;;;;;;;;11.33;11.33;;;;;;;;5079391;28;45866;-70
2022/07/13 01:19:39;;;;;;;;;14.00;12.00;;;;;;;;5079254;28;45510;-70
2022/07/13 01:22:08;;;;;;;;;11.67;10.67;;;;;;;;5078577;28;46626;-70
2022/07/13 01:24:33;;;;;;;;;9.33;9.33;;;;;;;;5079582;28;45202;-70
2022/07/13 01:27:00;;;;;;;;;12.00;11.00;;;;;;;;5079751;28;45288;-70
2022/07/13 01:29:25;;;;;;;;;10.33;9.00;;;;;;;;5081472;27;45499;-71
2022/07/13 01:31:50;;;;;;;;;10.67;9.33;;;;;;;;5090141;27;45462;-70
2022/07/13 01:34:17;;;;;;;;;10.00;10.00;;;;;;;;5079440;28;45504;-70
2022/07/13 01:36:43;;;;;;;;;14.33;11.00;;;;;;;;5090269;27;45521;-70
2022/07/13 01:39:09;;;;;;;;;10.67;10.67;;;;;;;;5079589;28;45335;-70
2022/07/13 01:41:35;;;;;;;;;10.00;10.00;;;;;;;;5089547;27;47505;-70
2022/07/13 01:44:00;;;;;;;;;13.33;10.00;;;;;;;;5099020;27;45588;-70
2022/07/13 01:46:26;;;;;;;;;11.00;9.67;;;;;;;;5083060;27;45367;-71
2022/07/13 01:48:51;;;;;;;;;13.00;11.00;;;;;;;;5099456;27;45537;-71
2022/07/13 01:51:17;;;;;;;;;12.33;10.33;;;;;;;;5092814;27;45478;-70
2022/07/13 01:53:42;;;;;;;;;12.33;10.33;;;;;;;;5078991;27;45408;-70
2022/07/13 01:56:08;;;;;;;;;10.00;10.00;;;;;;;;5085505;27;45368;-70
2022/07/13 01:58:33;;;;;;;;;14.33;10.33;;;;;;;;5088246;27;45639;-70
2022/07/13 02:00:58;;;;;;;;;12.00;10.00;;;;;;;;5093722;27;46347;-70
2022/07/13 02:03:24;;;;;;;;;14.00;10.67;;;;;;;;5097500;27;45234;-70
2022/07/13 02:05:49;;;;;;;;;10.67;10.67;;;;;;;;5079541;27;45296;-70
2022/07/13 02:08:14;;;;;;;;;11.33;10.00;;;;;;;;5086560;27;45320;-70
2022/07/13 02:10:39;;;;;;;;;13.33;10.00;;;;;;;;5099042;27;45269;-70
2022/07/13 02:13:07;;;;;;;;;12.00;12.00;;;;;;;;5087730;27;45442;-69
2022/07/13 02:15:32;;;;;;;;;15.00;12.00;;;;;;;;5079215;28;45342;-70
2022/07/13 02:17:57;;;;;;;;;15.00;10.67;;;;;;;;5094549;27;45853;-70
2022/07/13 02:20:23;;;;;;;;;13.00;12.33;;;;;;;;5078881;27;47008;-70
2022/07/13 02:22:48;;;;;;;;;12.67;11.67;;;;;;;;5082948;27;45246;-70
2022/07/13 02:25:14;;;;;;;;;15.33;12.33;;;;;;;;5099023;27;45636;-71
2022/07/13 02:27:39;;;;;;;;;16.00;12.67;;;;;;;;5096857;27;45425;-71
2022/07/13 02:30:05;;;;;;;;;13.00;12.00;;;;;;;;5092686;27;45693;-71
2022/07/13 02:32:30;;;;;;;;;12.00;12.00;;;;;;;;5078462;27;45472;-71
2022/07/13 02:34:55;;;;;;;;;13.67;12.00;;;;;;;;5078556;28;45288;-70
2022/07/13 02:37:20;;;;;;;;;14.00;12.00;;;;;;;;5096507;27;45410;-70
2022/07/13 02:39:46;;;;;;;;;11.33;11.33;;;;;;;;5082147;27;46035;-70
2022/07/13 02:42:11;;;;;;;;;15.67;13.67;;;;;;;;5078419;27;45883;-70
2022/07/13 02:44:36;;;;;;;;;14.67;14.00;;;;;;;;5078511;27;45245;-70
2022/07/13 02:47:01;;;;;;;;;13.33;12.00;;;;;;;;5078647;28;45350;-70
2022/07/13 02:49:26;;;;;;;;;13.33;12.33;;;;;;;;5078590;27;45633;-70
2022/07/13 02:51:52;;;;;;;;;10.00;9.67;;;;;;;;5091753;27;45347;-70
2022/07/13 02:54:17;;;;;;;;;17.00;13.67;;;;;;;;5096901;27;45324;-71
2022/07/13 02:56:42;;;;;;;;;18.33;15.67;;;;;;;;5090383;27;45399;-70
2022/07/13 02:59:07;;;;;;;;;11.00;10.67;;;;;;;;5077451;27;45455;-71
2022/07/13 03:01:32;;;;;;;;;11.33;11.00;;;;;;;;5094686;27;45375;-70
2022/07/13 03:03:58;;;;;;;;;12.67;12.33;;;;;;;;5079392;27;45400;-70
2022/07/13 03:06:23;;;;;;;;;14.00;14.00;;;;;;;;5086760;27;45477;-70
2022/07/13 03:08:48;;;;;;;;;14.00;12.33;;;;;;;;5078256;27;45440;-70
2022/07/13 03:11:14;;;;;;;;;13.67;12.33;;;;;;;;5096657;27;45150;-70
2022/07/13 03:13:39;;;;;;;;;12.33;10.33;;;;;;;;5090752;27;45441;-70
2022/07/13 03:16:04;;;;;;;;;11.00;11.00;;;;;;;;5084858;27;45225;-70
2022/07/13 03:18:30;;;;;;;;;13.33;12.33;;;;;;;;5098131;27;46630;-70
2022/07/13 03:20:55;;;;;;;;;15.33;12.67;;;;;;;;5098154;27;45382;-70
2022/07/13 03:23:20;;;;;;;;;13.67;11.33;;;;;;;;5077114;27;45392;-71
2022/07/13 03:25:45;;;;;;;;;13.33;12.00;;;;;;;;5081896;27;45386;-72
2022/07/13 03:28:11;;;;;;;;;11.33;11.33;;;;;;;;5084372;27;46019;-72
2022/07/13 03:30:36;;;;;;;;;14.00;12.67;;;;;;;;5095664;27;46668;-73
2022/07/13 03:33:02;;;;;;;;;12.67;10.33;;;;;;;;5077844;27;45372;-72
2022/07/13 03:35:27;;;;;;;;;10.33;10.33;;;;;;;;5078073;28;45426;-73
2022/07/13 03:37:52;;;;;;;;;13.00;11.67;;;;;;;;5090598;27;46688;-72
2022/07/13 03:40:17;;;;;;;;;11.00;11.00;;;;;;;;5081143;27;45298;-72
2022/07/13 03:42:43;;;;;;;;;13.00;10.00;;;;;;;;5089618;27;45749;-72
2022/07/13 03:45:08;;;;;;;;;8.33;8.33;;;;;;;;5077782;28;45361;-72
2022/07/13 03:47:33;;;;;;;;;14.67;11.00;;;;;;;;5087387;27;46421;-72
2022/07/13 03:49:58;;;;;;;;;12.33;8.33;;;;;;;;5083784;27;45285;-72
2022/07/13 03:52:24;;;;;;;;;12.33;10.00;;;;;;;;5077425;27;45340;-72
2022/07/13 03:54:49;;;;;;;;;9.00;9.00;;;;;;;;5083915;27;45410;-72
2022/07/13 03:57:14;;;;;;;;;11.00;10.33;;;;;;;;5086176;27;47570;-72
2022/07/13 03:59:39;;;;;;;;;6.33;6.33;;;;;;;;5079765;27;45350;-72
2022/07/13 04:02:05;;;;;;;;;13.00;10.00;;;;;;;;5077557;28;45399;-72
2022/07/13 04:04:30;;;;;;;;;10.67;9.33;;;;;;;;5093878;27;45436;-72
2022/07/13 04:06:55;;;;;;;;;12.00;10.33;;;;;;;;5077437;28;46259;-72
2022/07/13 04:09:20;;;;;;;;;10.00;10.00;;;;;;;;5092921;27;45442;-72
2022/07/13 04:11:48;;;;;;;;;11.33;10.00;;;;;;;;5096248;27;45665;-72
2022/07/13 04:14:13;;;;;;;;;9.00;9.00;;;;;;;;5101186;27;45499;-72
2022/07/13 04:16:38;;;;;;;;;9.33;9.00;;;;;;;;5101130;27;47281;-72
2022/07/13 04:19:03;;;;;;;;;9.33;9.33;;;;;;;;5085185;27;45404;-72
2022/07/13 04:21:29;;;;;;;;;30.00;19.67;;;;;;;;5080859;28;46474;-72
2022/07/13 04:23:55;;;;;;;;;14.00;12.33;;;;;;;;5080821;27;45203;-72
2022/07/13 04:26:20;;;;;;;;;9.67;9.67;;;;;;;;5095980;27;45460;-73
2022/07/13 04:28:45;;;;;;;;;11.33;11.33;;;;;;;;5082165;27;45307;-72
2022/07/13 04:31:10;;;;;;;;;13.33;11.33;;;;;;;;5080926;28;45410;-72
2022/07/13 04:33:35;;;;;;;;;14.67;12.33;;;;;;;;5098680;27;45229;-72
2022/07/13 04:36:01;;;;;;;;;11.00;11.00;;;;;;;;5098795;27;45526;-71
2022/07/13 04:38:26;;;;;;;;;14.33;10.67;;;;;;;;5080528;27;45244;-72
2022/07/13 04:40:51;;;;;;;;;14.00;14.00;;;;;;;;5093047;27;45424;-72
2022/07/13 04:43:16;;;;;;;;;11.00;11.00;;;;;;;;5085316;27;45324;-72
2022/07/13 04:45:41;;;;;;;;;14.00;12.00;;;;;;;;5100044;27;46100;-72
2022/07/13 04:48:07;;;;;;;;;19.33;14.33;;;;;;;;5100339;27;45275;-72
2022/07/13 04:50:32;;;;;;;;;13.00;11.00;;;;;;;;5090736;27;45512;-72
2022/07/13 04:52:57;;;;;;;;;15.00;15.00;;;;;;;;5085254;27;45328;-72
2022/07/13 04:55:23;;;;;;;;;16.00;13.00;;;;;;;;5100557;27;46656;-72
2022/07/13 04:57:48;;;;;;;;;15.67;11.67;;;;;;;;5088181;27;45765;-72
2022/07/13 05:00:13;;;;;;;;;13.00;11.00;;;;;;;;5079940;27;45457;-72
2022/07/13 05:02:38;;;;;;;;;14.67;11.67;;;;;;;;5093104;27;45293;-72
2022/07/13 05:05:05;;;;;;;;;14.00;14.00;;;;;;;;5080012;28;45433;-73
2022/07/13 05:07:30;;;;;;;;;16.67;16.67;;;;;;;;5077569;27;45387;-72
2022/07/13 05:09:56;;;;;;;;;15.33;11.33;;;;;;;;5100525;27;45318;-72
2022/07/13 05:12:21;;;;;;;;;11.67;10.00;;;;;;;;5082887;27;45433;-72
2022/07/13 05:14:47;;;;;;;;;13.67;12.33;;;;;;;;5091618;27;46147;-72
2022/07/13 05:17:12;;;;;;;;;10.00;10.00;;;;;;;;5100443;27;45377;-72
2022/07/13 05:19:37;;;;;;;;;15.33;15.00;;;;;;;;5080806;27;45534;-72
2022/07/13 05:22:03;;;;;;;;;10.67;9.00;;;;;;;;5093087;27;45464;-72
2022/07/13 05:24:28;;;;;;;;;11.33;10.67;;;;;;;;5090881;27;46519;-72
2022/07/13 05:26:53;;;;;;;;;16.33;11.67;;;;;;;;5098208;27;45458;-71
2022/07/13 05:29:18;;;;;;;;;10.00;10.00;;;;;;;;5092086;27;45357;-72
2022/07/13 05:31:43;;;;;;;;;9.00;8.00;;;;;;;;5094163;27;45693;-72
2022/07/13 05:34:09;;;;;;;;;9.00;9.00;;;;;;;;5099553;27;46186;-72
2022/07/13 05:36:34;;;;;;;;;11.67;11.00;;;;;;;;5080771;27;45309;-72
2022/07/13 05:38:59;;;;;;;;;11.67;11.67;;;;;;;;5093138;27;45455;-72
2022/07/13 05:41:24;;;;;;;;;8.67;8.33;;;;;;;;5099623;27;45219;-72
2022/07/13 05:43:50;;;;;;;;;8.33;8.00;;;;;;;;5079511;27;45437;-72
2022/07/13 05:46:15;;;;;;;;;7.67;7.00;;;;;;;;5079330;27;45446;-72
2022/07/13 05:48:40;;;;;;;;;9.67;8.00;;;;;;;;5079350;27;45454;-72
2022/07/13 05:51:05;;;;;;;;;7.67;6.00;;;;;;;;5079691;28;45354;-72
2022/07/13 05:53:31;;;;;;;;;7.33;7.33;;;;;;;;5080872;27;45370;-72
2022/07/13 05:55:56;;;;;;;;;6.67;5.00;;;;;;;;5085530;27;45378;-71
2022/07/13 05:58:21;;;;;;;;;9.00;6.00;;;;;;;;5089176;27;45475;-71
2022/07/13 06:00:47;;;;;;;;;8.33;7.00;;;;;;;;5080432;27;45378;-72
2022/07/13 06:03:12;;;;;;;;;7.00;6.00;;;;;;;;5078860;27;46543;-72
2022/07/13 06:05:37;;;;;;;;;6.33;6.33;;;;;;;;5092287;27;45616;-71
2022/07/13 06:08:02;;;;;;;;;7.67;6.67;;;;;;;;5082933;27;45407;-71
2022/07/13 06:10:28;;;;;;;;;6.33;6.33;;;;;;;;5079505;27;45300;-72
2022/07/13 06:12:53;;;;;;;;;6.00;6.00;;;;;;;;5079767;27;46574;-72
2022/07/13 06:15:18;;;;;;;;;5.33;5.33;;;;;;;;5098077;27;45345;-72
2022/07/13 06:17:44;;;;;;;;;11.33;9.67;;;;;;;;5079282;27;45487;-72
2022/07/13 06:20:09;;;;;;;;;9.00;9.00;;;;;;;;5086572;27;45514;-72
2022/07/13 06:22:34;;;;;;;;;8.00;6.00;;;;;;;;5098470;27;46491;-72
2022/07/13 06:25:00;;;;;;;;;6.67;5.00;;;;;;;;5099028;27;45503;-72
2022/07/13 06:27:26;;;;;;;;;9.33;7.67;;;;;;;;5091174;27;45299;-72
2022/07/13 06:29:51;;;;;;;;;14.00;12.67;;;;;;;;5078965;27;45474;-72
2022/07/13 06:32:17;;;;;;;;;35.00;30.00;;;;;;;;5093589;27;46183;-72
2022/07/13 06:34:42;;;;;;;;;8.33;8.33;;;;;;;;5098647;27;45384;-72
2022/07/13 06:37:07;;;;;;;;;11.33;9.00;;;;;;;;5089385;27;45224;-72
2022/07/13 06:39:33;;;;;;;;;10.33;7.67;;;;;;;;5095031;27;45424;-72
2022/07/13 06:41:58;;;;;;;;;8.00;7.00;;;;;;;;5093653;27;46335;-72
2022/07/13 06:44:24;;;;;;;;;8.00;8.00;;;;;;;;5091431;27;45331;-72
2022/07/13 06:46:49;;;;;;;;;8.67;7.00;;;;;;;;5078769;27;45465;-73
2022/07/13 06:49:15;;;;;;;;;8.00;7.00;;;;;;;;5092583;27;45744;-72
2022/07/13 06:51:40;;;;;;;;;6.00;6.00;;;;;;;;5097361;27;46238;-72
2022/07/13 06:54:06;;;;;;;;;8.33;8.00;;;;;;;;5092370;27;45391;-72
2022/07/13 06:56:31;;;;;;;;;8.00;6.00;;;;;;;;5078496;28;45241;-72
2022/07/13 06:58:56;;;;;;;;;8.00;6.00;;;;;;;;5078417;28;45462;-72
2022/07/13 07:01:21;;;;;;;;;6.00;5.67;;;;;;;;5077744;27;46542;-72
2022/07/13 07:03:47;;;;;;;;;6.33;5.00;;;;;;;;5079444;27;45545;-72
2022/07/13 07:06:12;;;;;;;;;5.00;5.00;;;;;;;;5078316;28;45376;-72
2022/07/13 07:08:37;;;;;;;;;8.00;5.00;;;;;;;;5089233;27;45356;-71
2022/07/13 07:11:03;;;;;;;;;5.00;5.00;;;;;;;;5098296;27;46379;-71
2022/07/13 07:13:28;;;;;;;;;5.00;5.00;;;;;;;;5092981;27;45299;-70
2022/07/13 07:15:53;;;;;;;;;8.00;5.67;;;;;;;;5098333;27;45730;-70
2022/07/13 07:18:21;;;;;;;;;4.67;3.67;;;;;;;;5096398;27;45435;-70
2022/07/13 07:20:47;;;;;;;;;5.00;4.00;;;;;;;;5080410;27;46247;-71
2022/07/13 07:23:12;;;;;;;;;7.67;5.00;;;;;;;;5095347;27;45346;-71
2022/07/13 07:25:37;;;;;;;;;4.00;4.00;;;;;;;;5084730;27;45390;-70
2022/07/13 07:28:02;;;;;;;;;4.33;4.33;;;;;;;;5076931;27;45868;-71
2022/07/13 07:30:28;;;;;;;;;6.33;4.67;;;;;;;;5079576;27;46390;-69
2022/07/13 07:32:53;;;;;;;;;5.00;5.00;;;;;;;;5078782;27;45870;-71
2022/07/13 07:35:18;;;;;;;;;3.33;3.00;;;;;;;;5077173;27;45282;-73
2022/07/13 07:37:44;;;;;;;;;5.00;5.00;;;;;;;;5077465;28;45337;-74
2022/07/13 07:40:11;;;;;;;;;7.67;4.67;;;;;;;;5093750;27;46377;-73
2022/07/13 07:42:36;;;;;;;;;4.67;4.67;;;;;;;;5097287;27;45358;-74
2022/07/13 07:45:03;;;;;;;;;4.00;4.00;;;;;;;;5081830;27;45640;-73
2022/07/13 07:47:28;;;;;;;;;5.33;4.00;;;;;;;;5093687;27;45323;-73
2022/07/13 07:49:53;;;;;;;;;4.00;4.00;;;;;;;;5097035;27;46239;-74
2022/07/13 07:52:19;;;;;;;;;5.00;5.00;;;;;;;;5080986;27;45485;-74
2022/07/13 07:54:45;;;;;;;;;8.33;8.33;;;;;;;;5064662;27;45445;-74
2022/07/13 07:57:11;;;;;;;;;6.00;4.67;;;;;;;;5094250;27;45615;-72
2022/07/13 07:59:36;;;;;;;;;4.67;4.67;;;;;;;;5076738;28;45630;-72
2022/07/13 08:02:01;;;;;;;;;4.33;4.00;;;;;;;;5076799;28;45369;-72
2022/07/13 08:04:27;;;;;;;;;6.00;6.00;;;;;;;;5077112;27;45288;-75
2022/07/13 08:06:52;;;;;;;;;5.67;5.67;;;;;;;;5077652;27;45292;-74
2022/07/13 08:09:17;;;;;;;;;3.33;3.33;;;;;;;;5084625;27;45578;-75
2022/07/13 08:11:42;;;;;;;;;4.00;4.00;;;;;;;;5094839;27;45383;-75
2022/07/13 08:14:08;;;;;;;;;7.67;4.67;;;;;;;;5084839;27;45399;-72
2022/07/13 08:16:33;;;;;;;;;8.67;5.33;;;;;;;;5078756;27;45392;-71
2022/07/13 08:18:58;;;;;;;;;5.67;5.67;;;;;;;;5096821;27;46532;-70
2022/07/13 08:21:23;;;;;;;;;4.33;4.33;;;;;;;;5096678;27;45872;-72
2022/07/13 08:23:52;;;;;;;;;6.00;6.00;;;;;;;;5077091;27;45351;-72
2022/07/13 08:26:20;;;;;;;;;8.33;7.33;;;;;;;;5077233;28;45310;-74
2022/07/13 08:28:46;;;;;;;;;8.67;7.33;;;;;;;;5094317;27;46259;-72
2022/07/13 08:31:12;;;;;;;;;5.33;5.00;;;;;;;;5090669;27;46886;-71
2022/07/13 08:39:06;;;;;;;;;11.33;9.33;;;;;;;;5060196;27;45706;-71
2022/07/13 08:41:32;;;;;;;;;8.00;8.00;;;;;;;;5096419;27;45433;-76
2022/07/13 08:43:57;;;;;;;;;7.67;5.67;;;;;;;;5093127;27;45829;-72
2022/07/13 08:46:23;;;;;;;;;5.00;4.67;;;;;;;;5088039;27;45347;-75
2022/07/13 08:48:49;;;;;;;;;6.00;6.00;;;;;;;;5076283;27;45462;-75
2022/07/13 08:51:18;;;;;;;;;6.67;6.67;;;;;;;;5092672;27;45342;-74
2022/07/13 08:53:44;;;;;;;;;8.67;6.00;;;;;;;;5087760;27;45375;-76
2022/07/13 08:56:09;;;;;;;;;8.00;6.33;;;;;;;;5097910;27;45450;-72
2022/07/13 08:58:36;;;;;;;;;11.67;11.67;;;;;;;;5084451;27;45378;-74
2022/07/13 09:01:01;;;;;;;;;3.33;3.33;;;;;;;;5097667;27;45469;-74
2022/07/13 09:03:26;;;;;;;;;8.33;7.00;;;;;;;;5090716;27;45395;-75
2022/07/13 09:05:51;;;;;;;;;6.00;6.00;;;;;;;;5080263;28;45304;-73
2022/07/13 09:08:18;;;;;;;;;6.67;5.67;;;;;;;;5080999;27;46705;-73
2022/07/13 09:10:54;;;;;;;;;7.33;6.33;;;;;;;;5079697;27;45226;-71
2022/07/13 09:13:32;;;;;;;;;5.00;5.00;;;;;;;;5094497;27;45447;-70
2022/07/13 09:16:17;;;;;;;;;6.33;6.00;;;;;;;;5099889;27;45369;-70
2022/07/13 09:18:46;;;;;;;;;7.33;7.33;;;;;;;;5092184;27;47230;-70
2022/07/13 09:21:12;;;;;;;;;8.00;6.00;;;;;;;;5078547;28;45418;-69
2022/07/13 09:23:37;;;;;;;;;8.00;6.67;;;;;;;;5079247;28;45271;-71
2022/07/13 09:26:03;;;;;;;;;9.67;6.67;;;;;;;;5079067;28;45363;-71
2022/07/13 09:28:39;;;;;;;;;9.33;7.67;;;;;;;;5080436;27;46629;-76
2022/07/13 09:31:05;;;;;;;;;8.67;8.67;;;;;;;;5099547;27;45399;-83
2022/07/13 09:33:34;;;;;;;;;6.67;6.67;;;;;;;;5083467;27;45452;-71
2022/07/13 09:36:08;;;;;;;;;6.67;6.67;;;;;;;;5079357;28;45721;-74
2022/07/13 09:38:34;;;;;;;;;10.00;9.00;;;;;;;;5079009;28;46603;-72
2022/07/13 09:41:14;;;;;;;;;6.00;3.00;;;;;;;;5078939;27;45337;-69
2022/07/13 09:46:55;;;;;;;;;5.67;5.67;;;;;;;;5079219;28;45437;-70
2022/07/13 09:49:32;;;;;;;;;10.67;9.33;;;;;;;;5078610;28;45414;-73
2022/07/13 09:51:59;;;;;;;;;5.67;5.67;;;;;;;;5058417;28;45335;-70
2022/07/13 09:54:28;;;;;;;;;8.00;7.33;;;;;;;;5061977;28;45339;-72
2022/07/13 09:57:00;;;;;;;;;4.00;4.00;;;;;;;;5076882;28;45845;-72
2022/07/13 09:59:27;;;;;;;;;5.00;5.00;;;;;;;;5078187;28;46566;-68
2022/07/13 10:01:52;;;;;;;;;4.25;4.25;;;;;;;;5078407;28;45231;-69
2022/07/13 10:04:18;;;;;;;;;5.50;4.25;;;;;;;;5081153;27;45739;-70
2022/07/13 10:06:44;;;;;;;;;5.00;4.00;;;;;;;;5096228;27;45286;-71
2022/07/13 10:09:10;;;;;;;;;5.00;3.25;;;;;;;;5084436;27;45524;-68
2022/07/13 10:11:35;;;;;;;;;3.00;3.00;;;;;;;;5098967;27;45388;-67
2022/07/13 10:14:01;;;;;;;;;5.50;3.25;;;;;;;;5086511;27;45552;-66
2022/07/13 10:16:30;;;;;;;;;5.00;3.00;;;;;;;;5078800;28;45250;-67
2022/07/13 10:18:56;;;;;;;;;5.00;5.00;;;;;;;;5078361;28;45502;-70
2022/07/13 10:21:26;;;;;;;;;49.33;41.33;;;;;;;;5078816;28;45476;-69
2022/07/13 10:23:52;;;;;;;;;6.75;6.00;;;;;;;;5078504;28;45711;-69
2022/07/13 10:26:19;;;;;;;;;5.00;3.50;;;;;;;;5079230;28;45199;-69
2022/07/13 10:29:00;;;;;;;;;3.25;3.00;;;;;;;;5078115;28;46309;-71
2022/07/13 10:31:26;;;;;;;;;5.00;5.00;;;;;;;;5078140;28;45305;-69
2022/07/13 10:33:52;;;;;;;;;4.25;4.00;;;;;;;;5078755;28;45359;-71
2022/07/13 10:36:37;;;;;;;;;5.00;5.00;;;;;;;;5078978;28;45276;-71
2022/07/13 10:39:12;;;;;;;;;4.00;4.00;;;;;;;;5078075;28;45580;-72
2022/07/13 10:41:56;;;;;;;;;4.75;4.25;;;;;;;;5078160;28;45239;-68
2022/07/13 10:44:30;;;;;;;;;5.50;5.00;;;;;;;;5078552;28;45539;-68
2022/07/13 10:46:56;;;;;;;;;5.75;5.75;;;;;;;;5077302;28;45337;-71
2022/07/13 10:49:30;;;;;;;;;3.00;2.50;;;;;;;;5085543;27;45689;-71
2022/07/13 10:51:57;;;;;;;;;6.50;6.50;;;;;;;;5080460;27;45363;-71
2022/07/13 10:54:22;;;;;;;;;4.75;3.25;;;;;;;;5091300;27;45468;-71
2022/07/13 10:57:06;;;;;;;;;2.00;2.00;;;;;;;;5085335;27;45361;-70
2022/07/13 10:59:44;;;;;;;;;3.25;3.25;;;;;;;;5097744;27;46349;-71
2022/07/13 11:02:30;;;;;;;;;3.00;2.50;;;;;;;;5097564;27;45737;-71
2022/07/13 11:04:56;;;;;;;;;4.00;2.00;;;;;;;;5092063;27;45441;-71
2022/07/13 11:07:38;;;;;;;;;3.50;3.50;;;;;;;;5089339;27;45576;-69
2022/07/13 11:10:17;;;;;;;;;2.50;2.50;;;;;;;;5077568;28;45992;-70
2022/07/13 11:12:58;;;;;;;;;3.00;3.00;;;;;;;;5076981;28;45484;-68
2022/07/13 11:15:24;;;;;;;;;2.50;2.50;;;;;;;;5079652;27;45364;-68
2022/07/13 11:17:53;;;;;;;;;3.00;3.00;;;;;;;;5080386;27;45497;-71
2022/07/13 11:20:19;;;;;;;;;2.25;2.25;;;;;;;;5077465;28;45399;-71
2022/07/13 11:25:55;;;;;;;;;2.25;2.25;;;;;;;;5077886;28;45273;-71
2022/07/13 11:28:21;;;;;;;;;6.25;6.25;;;;;;;;5077812;28;45406;-71
2022/07/13 11:30:51;;;;;;;;;5.00;3.75;;;;;;;;5077590;28;45512;-71
2022/07/13 11:33:18;;;;;;;;;4.00;4.00;;;;;;;;5077843;28;45246;-71
2022/07/13 11:35:44;;;;;;;;;2.50;2.50;;;;;;;;5077514;28;45399;-70
2022/07/13 11:38:10;;;;;;;;;1.75;1.75;;;;;;;;5077810;28;45228;-71
2022/07/13 11:40:35;;;;;;;;;5.00;4.75;;;;;;;;5077414;28;45315;-70
2022/07/13 11:43:02;;;;;;;;;3.75;3.75;;;;;;;;5077515;28;45386;-71
2022/07/13 11:45:31;;;;;;;;;3.00;3.00;;;;;;;;5077583;28;45777;-70
2022/07/13 11:48:00;;;;;;;;;0.50;0.50;;;;;;;;5077211;28;45434;-71
2022/07/13 11:50:41;;;;;;;;;3.00;3.00;;;;;;;;5077295;28;45640;-71
2022/07/13 11:53:07;;;;;;;;;3.75;3.75;;;;;;;;5077752;28;45178;-70
2022/07/13 11:55:33;;;;;;;;;3.67;3.67;;;;;;;;5077627;28;45773;-70
2022/07/13 11:57:59;;;;;;;;;4.00;4.00;;;;;;;;5078009;28;45478;-71
2022/07/13 12:00:24;;;;;;;;;1.67;1.67;;;;;;;;5077294;28;45338;-70
2022/07/13 12:02:52;;;;;;;;;3.33;3.33;;;;;;;;5077581;28;45449;-70
2022/07/13 12:05:25;;;;;;;;;3.33;3.33;;;;;;;;5077663;28;45394;-71
2022/07/13 12:08:01;;;;;;;;;4.50;3.00;;;;;;;;5077883;28;45248;-71
2022/07/13 12:10:26;;;;;;;;;1.67;1.67;;;;;;;;5077239;28;46800;-71
2022/07/13 12:12:52;;;;;;;;;4.00;2.33;;;;;;;;5077566;28;45275;-70
2022/07/13 12:15:19;;;;;;;;;1.67;1.67;;;;;;;;5087692;27;45431;-70
2022/07/13 12:17:45;;;;;;;;;1.67;1.67;;;;;;;;5093180;27;45447;-71
2022/07/13 12:20:14;;;;;;;;;1.00;1.00;;;;;;;;5081533;27;45748;-72
2022/07/13 12:22:40;;;;;;;;;6.00;3.67;;;;;;;;5076328;27;45437;-71
2022/07/13 12:25:06;;;;;;;;;3.00;3.00;;;;;;;;5082353;27;45426;-71
2022/07/13 12:27:32;;;;;;;;;0.67;0.67;;;;;;;;5076686;27;45718;-71
2022/07/13 12:30:10;;;;;;;;;1.67;1.67;;;;;;;;5075837;28;47495;-71
2022/07/13 12:32:54;;;;;;;;;1.67;1.67;;;;;;;;5078362;28;45402;-72
2022/07/13 12:35:19;;;;;;;;;1.67;1.67;;;;;;;;5079097;28;45409;-70
2022/07/13 12:37:50;;;;;;;;;4.33;2.67;;;;;;;;5079793;28;45490;-71
2022/07/13 12:40:41;;;;;;;;;4.67;3.33;;;;;;;;5081068;27;47310;-72
2022/07/13 12:43:23;;;;;;;;;3.67;2.00;;;;;;;;5085092;27;45393;-70
2022/07/13 12:45:52;;;;;;;;;3.00;3.00;;;;;;;;5100376;27;45386;-71
2022/07/13 12:48:19;;;;;;;;;5.67;4.00;;;;;;;;5082241;27;45385;-71
2022/07/13 12:50:54;;;;;;;;;8.67;7.33;;;;;;;;5079702;28;46019;-71
2022/07/13 12:53:19;;;;;;;;;9.50;8.50;;;;;;;;5079598;28;45517;-71
2022/07/13 12:55:54;;;;;;;;;4.67;4.67;;;;;;;;5085770;27;46848;-71
2022/07/13 12:58:20;;;;;;;;;6.33;6.00;;;;;;;;5082665;27;45451;-71
2022/07/13 13:00:45;;;;;;;;;4.33;3.33;;;;;;;;5099462;27;45479;-71
2022/07/13 13:03:10;;;;;;;;;4.33;4.33;;;;;;;;5096906;27;45476;-70
2022/07/13 13:05:36;;;;;;;;;5.67;4.33;;;;;;;;5100236;27;45379;-71
2022/07/13 13:08:01;;;;;;;;;3.00;3.00;;;;;;;;5081535;27;45387;-71
2022/07/13 13:10:26;;;;;;;;;5.00;5.00;;;;;;;;5079553;28;46702;-71
2022/07/13 13:12:52;;;;;;;;;4.00;4.00;;;;;;;;5079379;28;45392;-71
2022/07/13 13:15:19;;;;;;;;;5.33;5.33;;;;;;;;5083619;27;45395;-70
2022/07/13 13:17:45;;;;;;;;;4.67;4.67;;;;;;;;5100004;27;45525;-71
2022/07/13 13:20:10;;;;;;;;;5.67;5.67;;;;;;;;5099628;27;45487;-71
2022/07/13 13:22:35;;;;;;;;;4.67;4.67;;;;;;;;5100040;27;45369;-70
2022/07/13 13:25:00;;;;;;;;;5.33;5.33;;;;;;;;5099933;27;45478;-71
2022/07/13 13:27:25;;;;;;;;;5.33;5.33;;;;;;;;5100086;27;45397;-71
2022/07/13 13:32:34;;;;;;;;;4.67;4.67;;;;;;;;5099548;27;45313;-74
2022/07/13 13:35:00;;;;;;;;;3.67;3.67;;;;;;;;5099604;27;45356;-72
2022/07/13 13:37:25;;;;;;;;;7.00;5.00;;;;;;;;5099953;27;45185;-71
2022/07/13 13:39:50;;;;;;;;;3.33;3.33;;;;;;;;5099400;27;46487;-71
2022/07/13 13:42:15;;;;;;;;;3.67;3.67;;;;;;;;5099182;27;45402;-73
2022/07/13 13:44:41;;;;;;;;;5.00;4.67;;;;;;;;5098588;27;45397;-73
2022/07/13 13:47:06;;;;;;;;;9.33;9.33;;;;;;;;5099608;27;45389;-74
2022/07/13 13:49:31;;;;;;;;;4.00;4.00;;;;;;;;5098979;27;46572;-75
2022/07/13 13:51:57;;;;;;;;;4.00;4.00;;;;;;;;5093563;27;45404;-75
2022/07/13 13:54:22;;;;;;;;;4.00;4.00;;;;;;;;5079060;28;45353;-72
2022/07/13 13:56:47;;;;;;;;;4.33;3.67;;;;;;;;5078997;28;45438;-71
2022/07/13 13:59:12;;;;;;;;;3.67;3.67;;;;;;;;5078851;28;45407;-72
2022/07/13 14:01:39;;;;;;;;;5.67;4.67;;;;;;;;5079247;28;45475;-72
2022/07/13 14:04:04;;;;;;;;;6.00;5.00;;;;;;;;5083582;27;45468;-72
2022/07/13 14:06:29;;;;;;;;;2.67;2.00;;;;;;;;5100083;27;45300;-74
2022/07/13 14:08:55;;;;;;;;;3.00;3.00;;;;;;;;5080089;27;46469;-74
2022/07/13 14:11:20;;;;;;;;;2.67;2.67;;;;;;;;5078821;27;45390;-72
2022/07/13 14:13:46;;;;;;;;;3.67;3.67;;;;;;;;5079041;28;45268;-74
2022/07/13 14:16:12;;;;;;;;;9.00;6.00;;;;;;;;5079182;28;45383;-74
2022/07/13 14:18:38;;;;;;;;;6.33;6.00;;;;;;;;5078864;28;47425;-75
2022/07/13 14:21:04;;;;;;;;;10.33;6.67;;;;;;;;5079032;28;45298;-73
2022/07/13 14:23:29;;;;;;;;;8.00;8.00;;;;;;;;5078949;28;45451;-73
2022/07/13 14:25:55;;;;;;;;;8.33;8.33;;;;;;;;5078148;28;45304;-73
2022/07/13 14:28:20;;;;;;;;;8.00;4.67;;;;;;;;5078372;28;46354;-72
2022/07/13 14:30:46;;;;;;;;;7.00;7.00;;;;;;;;5079139;28;45272;-71
2022/07/13 14:33:14;;;;;;;;;13.33;12.67;;;;;;;;5078181;27;45295;-72
2022/07/13 14:35:43;;;;;;;;;6.33;6.33;;;;;;;;5079037;28;45308;-77
2022/07/13 14:38:10;;;;;;;;;6.67;6.67;;;;;;;;5078657;28;47491;-75
2022/07/13 14:40:36;;;;;;;;;6.33;6.33;;;;;;;;5078486;28;45250;-74
2022/07/13 14:43:01;;;;;;;;;6.67;6.67;;;;;;;;5078929;28;45288;-74
2022/07/13 14:45:26;;;;;;;;;7.00;7.00;;;;;;;;5060264;28;45328;-74